createdAt,value
2018-03-07T00:20:57.659Z,4.60
2018-03-07T00:23:25.620Z,4.60
2018-03-07T00:25:53.492Z,4.70
2018-03-07T00:28:22.080Z,4.70
2018-03-07T00:30:50.120Z,4.60
2018-03-07T00:33:18.732Z,4.70
2018-03-07T00:35:46.803Z,4.70
2018-03-07T00:38:15.683Z,4.70
2018-03-07T00:40:43.739Z,4.70
2018-03-07T00:43:11.508Z,4.70
2018-03-07T00:45:39.394Z,4.70
2018-03-07T00:48:07.340Z,4.70
2018-03-07T00:50:35.328Z,4.80
2018-03-07T00:53:04.109Z,4.70
2018-03-07T00:55:31.964Z,4.70
2018-03-07T00:57:59.831Z,4.80
2018-03-07T01:00:28.218Z,4.70
2018-03-07T01:02:56.196Z,4.70
2018-03-07T01:05:23.960Z,4.70
2018-03-07T01:07:51.987Z,4.80
2018-03-07T01:10:19.911Z,4.80
2018-03-07T01:12:47.867Z,4.80
2018-03-07T01:15:17.164Z,4.70
2018-03-07T01:17:45.196Z,4.70
2018-03-07T01:20:13.188Z,4.80
2018-03-07T01:22:41.337Z,4.80
2018-03-07T01:25:09.233Z,4.80
2018-03-07T01:27:37.002Z,4.80
2018-03-07T01:30:05.353Z,4.90
2018-03-07T01:32:33.360Z,4.90
2018-03-07T01:35:01.334Z,4.80
2018-03-07T01:37:29.405Z,4.80
2018-03-07T01:39:57.571Z,4.70
2018-03-07T01:42:25.425Z,4.60
2018-03-07T01:44:53.206Z,4.60
2018-03-07T01:47:21.072Z,4.50
2018-03-07T01:49:51.208Z,4.50
2018-03-07T01:52:19.765Z,4.50
2018-03-07T01:54:47.733Z,4.50
2018-03-07T01:57:15.703Z,4.40
2018-03-07T01:59:43.506Z,4.40
2018-03-07T02:02:12.116Z,4.30
2018-03-07T02:04:39.930Z,4.30
2018-03-07T02:07:07.869Z,4.20
2018-03-07T02:09:35.866Z,4.30
2018-03-07T02:12:03.808Z,4.20
2018-03-07T02:14:31.636Z,4.20
2018-03-07T02:16:59.606Z,4.20
2018-03-07T02:19:27.581Z,4.20
2018-03-07T02:21:55.677Z,4.30
2018-03-07T02:24:23.580Z,4.40
2018-03-07T02:26:51.722Z,4.40
2018-03-07T02:29:19.600Z,4.40
2018-03-07T02:31:47.682Z,4.40
2018-03-07T02:34:16.265Z,4.40
2018-03-07T02:36:44.049Z,4.40
2018-03-07T02:39:13.404Z,4.40
2018-03-07T02:41:41.336Z,4.40
2018-03-07T02:44:09.271Z,4.40
2018-03-07T02:46:37.216Z,4.30
2018-03-07T02:49:05.181Z,4.10
2018-03-07T02:51:33.050Z,4.10
2018-03-07T02:54:02.086Z,4.10
2018-03-07T02:56:30.950Z,4.20
2018-03-07T02:58:59.329Z,4.20
2018-03-07T03:01:27.589Z,4.20
2018-03-07T03:03:55.678Z,4.20
2018-03-07T03:06:23.627Z,4.30
2018-03-07T03:08:51.514Z,4.30
2018-03-07T03:11:19.385Z,4.30
2018-03-07T03:13:47.345Z,4.20
2018-03-07T03:16:15.573Z,4.10
2018-03-07T03:18:43.572Z,4.20
2018-03-07T03:21:11.444Z,4.10
2018-03-07T03:23:39.351Z,4.10
2018-03-07T03:26:08.022Z,4.20
2018-03-07T03:28:36.057Z,4.20
2018-03-07T03:31:03.951Z,4.30
2018-03-07T03:33:31.998Z,4.30
2018-03-07T03:36:00.198Z,4.20
2018-03-07T03:38:29.422Z,4.10
2018-03-07T03:40:58.175Z,4.20
2018-03-07T03:43:26.330Z,4.20
2018-03-07T03:45:54.401Z,4.20
2018-03-07T03:48:22.388Z,4.20
2018-03-07T03:50:50.236Z,4.00
2018-03-07T03:53:18.126Z,4.00
2018-03-07T03:55:45.990Z,4.00
2018-03-07T03:58:14.038Z,4.00
2018-03-07T04:00:41.826Z,3.90
2018-03-07T04:03:09.673Z,4.00
2018-03-07T04:05:37.566Z,4.00
2018-03-07T04:08:05.502Z,4.00
2018-03-07T04:10:33.490Z,4.00
2018-03-07T04:13:01.362Z,3.90
2018-03-07T04:15:29.535Z,3.90
2018-03-07T04:17:57.620Z,3.80
2018-03-07T04:20:25.561Z,3.80
2018-03-07T04:22:53.443Z,3.70
2018-03-07T04:25:21.386Z,3.70
2018-03-07T04:27:51.005Z,3.70
2018-03-07T04:30:19.069Z,3.70
2018-03-07T04:32:47.036Z,3.60
2018-03-07T04:35:15.208Z,3.70
2018-03-07T04:37:42.991Z,3.60
2018-03-07T04:40:10.767Z,3.50
2018-03-07T04:42:38.809Z,3.50
2018-03-07T04:45:06.677Z,3.60
2018-03-07T04:47:34.741Z,3.50
2018-03-07T04:50:02.517Z,3.40
2018-03-07T04:52:31.192Z,3.40
2018-03-07T04:54:59.161Z,3.30
2018-03-07T04:57:27.140Z,3.30
2018-03-07T04:59:55.016Z,3.40
2018-03-07T05:02:22.988Z,3.40
2018-03-07T05:04:50.856Z,3.30
2018-03-07T05:07:18.701Z,3.40
2018-03-07T05:09:46.697Z,3.40
2018-03-07T05:12:15.071Z,3.40
2018-03-07T05:14:43.118Z,3.40
2018-03-07T05:17:11.290Z,3.40
2018-03-07T05:19:39.050Z,3.40
2018-03-07T05:22:06.966Z,3.50
2018-03-07T05:24:35.719Z,3.60
2018-03-07T05:27:03.884Z,3.60
2018-03-07T05:29:31.648Z,3.70
2018-03-07T05:31:59.444Z,3.70
2018-03-07T05:34:27.730Z,3.70
2018-03-07T05:36:56.440Z,3.70
2018-03-07T05:39:24.369Z,3.60
2018-03-07T05:41:52.247Z,3.60
2018-03-07T05:44:21.043Z,3.60
2018-03-07T05:46:49.610Z,3.70
2018-03-07T05:49:17.573Z,3.60
2018-03-07T05:51:45.515Z,3.60
2018-03-07T05:54:13.331Z,3.60
2018-03-07T05:56:42.214Z,3.70
2018-03-07T05:59:10.063Z,3.70
2018-03-07T06:01:37.939Z,3.70
2018-03-07T06:04:05.987Z,3.70
2018-03-07T06:06:33.852Z,3.70
2018-03-07T06:09:01.813Z,3.70
2018-03-07T06:11:30.295Z,3.70
2018-03-07T06:13:58.572Z,3.70
2018-03-07T06:16:26.745Z,3.70
2018-03-07T06:18:54.749Z,3.60
2018-03-07T06:21:22.998Z,3.60
2018-03-07T06:23:51.001Z,3.70
2018-03-07T06:26:39.248Z,3.80
2018-03-07T06:29:08.223Z,3.70
2018-03-07T06:31:36.556Z,3.70
2018-03-07T06:34:09.152Z,3.80
2018-03-07T06:36:37.221Z,3.80
2018-03-07T06:39:05.189Z,3.80
2018-03-07T06:41:33.196Z,3.80
2018-03-07T06:44:01.162Z,3.80
2018-03-07T06:46:29.854Z,3.80
2018-03-07T06:48:59.628Z,3.80
2018-03-07T06:51:27.597Z,3.70
2018-03-07T06:53:55.484Z,3.80
2018-03-07T06:56:23.545Z,3.80
2018-03-07T06:58:51.508Z,3.80
2018-03-07T07:01:19.478Z,3.80
2018-03-07T07:03:47.364Z,3.90
2018-03-07T07:06:15.237Z,3.90
2018-03-07T07:08:43.170Z,3.90
2018-03-07T07:11:11.243Z,3.90
2018-03-07T07:13:39.211Z,3.90
2018-03-07T07:16:07.177Z,3.90
2018-03-07T07:18:35.153Z,3.90
2018-03-07T07:21:03.221Z,4.00
2018-03-07T07:23:31.523Z,4.00
2018-03-07T07:25:59.368Z,4.10
2018-03-07T07:28:27.168Z,4.10
2018-03-07T07:30:55.741Z,4.30
2018-03-07T07:33:23.595Z,4.20
2018-03-07T07:35:51.473Z,4.40
2018-03-07T07:38:19.416Z,4.40
2018-03-07T07:40:47.310Z,4.50
2018-03-07T07:43:15.176Z,4.50
2018-03-07T07:45:43.140Z,4.60
2018-03-07T07:48:10.981Z,4.80
2018-03-07T07:50:38.950Z,4.80
2018-03-07T07:53:06.846Z,4.90
2018-03-07T07:55:34.804Z,4.90
2018-03-07T07:58:03.470Z,4.90
2018-03-07T08:00:31.547Z,4.90
2018-03-07T08:02:59.613Z,4.90
2018-03-07T08:05:27.739Z,4.90
2018-03-07T08:07:56.304Z,4.90
2018-03-07T08:10:24.969Z,5.00
2018-03-07T08:12:52.921Z,5.00
2018-03-07T08:15:20.814Z,5.00
2018-03-07T08:17:48.791Z,5.10
2018-03-07T08:20:17.472Z,5.30
2018-03-07T08:22:45.440Z,5.30
2018-03-07T08:25:13.408Z,5.40
2018-03-07T08:27:42.063Z,5.50
2018-03-07T08:30:10.040Z,5.50
2018-03-07T08:32:38.021Z,5.40
2018-03-07T08:35:05.817Z,5.40
2018-03-07T08:37:34.471Z,5.40
2018-03-07T08:40:02.417Z,5.40
2018-03-07T08:42:30.512Z,5.50
2018-03-07T08:44:59.282Z,5.60
2018-03-07T08:47:27.186Z,5.60
2018-03-07T08:49:55.845Z,5.90
2018-03-07T08:52:23.717Z,5.90
2018-03-07T08:54:51.599Z,5.90
2018-03-07T08:57:19.552Z,5.80
2018-03-07T08:59:47.426Z,5.80
2018-03-07T09:02:15.332Z,5.70
2018-03-07T09:04:43.156Z,5.70
2018-03-07T09:07:11.101Z,5.70
2018-03-07T09:09:39.276Z,5.70
2018-03-07T09:12:07.176Z,5.70
2018-03-07T09:14:35.148Z,5.70
2018-03-07T09:17:03.829Z,5.90
2018-03-07T09:19:31.887Z,5.90
2018-03-07T09:21:59.751Z,6.20
2018-03-07T09:24:28.038Z,6.50
2018-03-07T09:26:56.907Z,6.60
2018-03-07T09:29:25.090Z,6.50
2018-03-07T09:31:53.163Z,6.50
2018-03-07T09:34:21.047Z,6.30
2018-03-07T09:36:49.183Z,6.10
2018-03-07T09:39:17.175Z,6.20
2018-03-07T09:41:45.053Z,6.60
2018-03-07T09:44:13.092Z,6.90
2018-03-07T09:46:41.060Z,7.20
2018-03-07T09:49:09.078Z,7.10
2018-03-07T09:51:37.750Z,7.60
2018-03-07T09:54:05.811Z,7.60
2018-03-07T09:56:34.110Z,7.90
2018-03-07T09:59:02.748Z,8.00
2018-03-07T10:01:30.735Z,8.00
2018-03-07T10:03:58.708Z,8.00
2018-03-07T10:06:26.843Z,8.20
2018-03-07T10:08:55.342Z,8.60
2018-03-07T10:11:23.316Z,8.60
2018-03-07T10:13:51.378Z,9.00
2018-03-07T10:16:19.282Z,9.20
2018-03-07T10:18:48.957Z,9.60
2018-03-07T10:21:17.170Z,9.60
2018-03-07T10:23:45.938Z,10.30
2018-03-07T10:26:13.927Z,10.20
2018-03-07T10:28:42.800Z,9.40
2018-03-07T10:31:10.778Z,9.40
2018-03-07T10:33:38.818Z,9.40
2018-03-07T10:36:06.638Z,9.60
2018-03-07T10:38:35.345Z,8.90
2018-03-07T10:41:03.357Z,8.90
2018-03-07T10:43:32.123Z,8.90
2018-03-07T10:46:00.130Z,9.10
2018-03-07T10:48:28.406Z,9.10
2018-03-07T10:50:56.694Z,9.10
2018-03-07T10:53:25.445Z,9.00
2018-03-07T10:55:53.433Z,8.90
2018-03-07T10:58:23.231Z,9.20
2018-03-07T11:00:51.197Z,9.20
2018-03-07T11:03:19.263Z,9.30
2018-03-07T11:05:47.284Z,9.10
2018-03-07T11:08:15.948Z,9.00
2018-03-07T11:10:43.984Z,9.00
2018-03-07T11:13:11.954Z,9.20
2018-03-07T11:15:39.951Z,9.20
2018-03-07T11:18:07.997Z,9.10
2018-03-07T11:20:35.995Z,9.60
2018-03-07T11:23:04.749Z,10.10
2018-03-07T11:25:32.870Z,10.00
2018-03-07T11:28:01.856Z,9.10
2018-03-07T11:30:30.843Z,9.40
2018-03-07T11:32:58.896Z,9.40
2018-03-07T11:35:27.231Z,9.70
2018-03-07T11:37:55.160Z,10.00
2018-03-07T11:40:23.939Z,9.30
2018-03-07T11:42:52.359Z,9.30
2018-03-07T11:45:20.490Z,9.10
2018-03-07T11:47:48.537Z,8.90
2018-03-07T11:50:16.538Z,8.80
2018-03-07T11:52:44.674Z,8.70
2018-03-07T11:55:12.680Z,8.90
2018-03-07T11:57:41.340Z,8.70
2018-03-07T12:00:09.506Z,8.70
2018-03-07T12:02:37.443Z,8.70
2018-03-07T12:05:05.322Z,8.70
2018-03-07T12:07:33.191Z,8.40
2018-03-07T12:10:01.278Z,8.40
2018-03-07T12:12:29.474Z,8.30
2018-03-07T12:14:57.540Z,8.20
2018-03-07T12:17:31.864Z,8.30
2018-03-07T12:20:00.024Z,8.20
2018-03-07T12:22:28.194Z,8.00
2018-03-07T12:24:56.464Z,7.90
2018-03-07T12:27:24.345Z,7.70
2018-03-07T12:29:52.515Z,7.50
2018-03-07T12:32:20.501Z,7.50
2018-03-07T12:34:48.571Z,7.60
2018-03-07T12:37:16.625Z,7.60
2018-03-07T12:39:44.499Z,7.60
2018-03-07T12:42:12.492Z,7.60
2018-03-07T12:44:41.242Z,7.80
2018-03-07T12:47:09.302Z,7.80
2018-03-07T12:49:37.213Z,7.90
2018-03-07T12:52:06.383Z,8.20
2018-03-07T12:54:34.473Z,8.20
2018-03-07T12:57:02.544Z,8.40
2018-03-07T12:59:30.815Z,8.50
2018-03-07T13:01:58.900Z,8.60
2018-03-07T13:04:27.893Z,8.60
2018-03-07T13:06:56.311Z,8.70
2018-03-07T13:09:24.516Z,8.70
2018-03-07T13:11:52.485Z,8.60
2018-03-07T13:14:20.684Z,8.60
2018-03-07T13:16:48.858Z,8.70
2018-03-07T13:19:16.821Z,8.90
2018-03-07T13:21:44.978Z,8.70
2018-03-07T13:24:12.979Z,8.80
2018-03-07T13:26:41.110Z,8.90
2018-03-07T13:29:09.288Z,9.00
2018-03-07T13:31:37.461Z,8.80
2018-03-07T13:34:05.351Z,8.80
2018-03-07T13:36:33.318Z,8.90
2018-03-07T13:39:01.397Z,8.90
2018-03-07T13:41:29.955Z,8.90
2018-03-07T13:43:58.473Z,8.90
2018-03-07T13:46:27.423Z,8.80
2018-03-07T13:48:55.597Z,8.80
2018-03-07T13:51:23.671Z,8.80
2018-03-07T13:53:51.845Z,8.70
2018-03-07T13:56:20.111Z,8.60
2018-03-07T13:58:48.012Z,8.60
2018-03-07T14:01:16.159Z,8.50
2018-03-07T14:03:44.943Z,8.40
2018-03-07T14:06:13.017Z,8.40
2018-03-07T14:08:41.007Z,8.30
2018-03-07T14:11:08.897Z,8.30
2018-03-07T14:13:37.663Z,8.40
2018-03-07T14:16:06.022Z,8.40
2018-03-07T14:23:55.222Z,8.30
2018-03-07T14:29:12.576Z,8.30
2018-03-07T14:31:40.499Z,8.30
2018-03-07T14:34:08.793Z,8.30
2018-03-07T14:36:37.616Z,8.20
2018-03-07T14:39:05.696Z,8.20
2018-03-07T14:41:33.835Z,8.20
2018-03-07T14:44:01.674Z,8.30
2018-03-07T14:46:29.588Z,8.40
2018-03-07T14:48:58.102Z,8.40
2018-03-07T14:54:58.113Z,8.50
2018-03-07T14:57:25.977Z,8.60
2018-03-07T14:59:53.938Z,8.50
2018-03-07T15:02:21.866Z,8.50
2018-03-07T15:04:49.869Z,8.40
2018-03-07T15:07:17.969Z,8.30
2018-03-07T15:09:46.011Z,8.30
2018-03-07T15:12:14.267Z,8.20
2018-03-07T15:14:42.466Z,8.20
2018-03-07T15:17:10.529Z,8.10
2018-03-07T15:19:38.802Z,8.10
2018-03-07T15:22:06.790Z,8.00
2018-03-07T15:24:34.795Z,7.90
2018-03-07T15:27:03.530Z,7.70
2018-03-07T15:29:31.510Z,7.70
2018-03-07T15:31:59.569Z,7.50
2018-03-07T15:34:27.771Z,7.40
2018-03-07T15:36:55.814Z,7.30
2018-03-07T15:39:24.031Z,7.10
2018-03-07T15:41:52.793Z,5.80
2018-03-07T15:44:20.718Z,5.80
2018-03-07T15:46:48.696Z,5.20
2018-03-07T15:49:16.699Z,5.00
2018-03-07T15:51:45.716Z,5.00
2018-03-07T15:54:14.552Z,5.00
2018-03-07T15:56:42.738Z,5.00
2018-03-07T15:59:10.838Z,5.00
2018-03-07T16:01:38.905Z,5.00
2018-03-07T16:04:06.874Z,5.00
2018-03-07T16:06:34.880Z,5.00
2018-03-07T16:09:02.709Z,5.00
2018-03-07T16:11:30.891Z,5.00
2018-03-07T16:14:00.567Z,5.00
2018-03-07T16:16:28.865Z,5.00
2018-03-07T16:18:56.946Z,5.00
2018-03-07T16:21:25.067Z,5.00
2018-03-07T16:23:52.934Z,5.00
2018-03-07T16:26:20.952Z,4.90
2018-03-07T16:28:49.006Z,4.80
2018-03-07T16:31:16.839Z,4.70
2018-03-07T16:33:44.870Z,4.60
2018-03-07T16:36:13.618Z,4.50
2018-03-07T16:38:41.504Z,4.50
2018-03-07T16:41:11.361Z,4.50
2018-03-07T16:43:39.368Z,4.50
2018-03-07T16:46:07.469Z,4.50
2018-03-07T16:48:35.524Z,4.50
2018-03-07T16:51:03.686Z,4.50
2018-03-07T16:53:31.754Z,4.50
2018-03-07T16:55:59.753Z,4.60
2018-03-07T16:58:28.462Z,4.60
2018-03-07T17:00:57.306Z,4.60
2018-03-07T17:03:25.475Z,4.60
2018-03-07T17:05:53.543Z,4.60
2018-03-07T17:08:21.929Z,4.60
2018-03-07T17:10:49.994Z,4.50
2018-03-07T17:13:18.020Z,4.50
2018-03-07T17:15:46.377Z,4.50
2018-03-07T17:18:14.390Z,4.40
2018-03-07T17:20:42.424Z,4.40
2018-03-07T17:23:11.097Z,4.30
2018-03-07T17:25:39.758Z,4.30
2018-03-07T17:28:07.926Z,4.30
2018-03-07T17:30:36.104Z,4.30
2018-03-07T17:33:04.195Z,4.40
2018-03-07T17:35:32.258Z,4.40
2018-03-07T17:38:00.215Z,4.50
2018-03-07T17:40:28.092Z,4.50
2018-03-07T17:42:56.304Z,4.60
2018-03-07T17:45:25.342Z,4.50
2018-03-07T17:47:53.212Z,4.50
2018-03-07T17:50:21.384Z,4.60
2018-03-07T17:52:49.363Z,4.60
2018-03-07T17:55:17.428Z,4.70
2018-03-07T17:57:46.037Z,4.80
2018-03-07T18:00:14.081Z,4.80
2018-03-07T18:02:42.256Z,4.90
2018-03-07T18:05:10.346Z,4.80
2018-03-07T18:07:38.906Z,4.60
2018-03-07T18:10:06.979Z,4.50
2018-03-07T18:12:34.871Z,4.50
2018-03-07T18:15:02.966Z,4.40
2018-03-07T18:17:31.824Z,4.30
2018-03-07T18:19:59.692Z,4.30
2018-03-07T18:22:27.895Z,4.20
2018-03-07T18:24:56.931Z,4.10
2018-03-07T18:27:25.846Z,4.10
2018-03-07T18:29:53.718Z,4.00
2018-03-07T18:32:21.798Z,3.90
2018-03-07T18:34:49.756Z,3.60
2018-03-07T18:37:17.810Z,3.40
2018-03-07T18:39:46.018Z,3.30
2018-03-07T18:42:13.980Z,3.30
2018-03-07T18:44:43.026Z,3.30
2018-03-07T18:47:11.847Z,3.30
2018-03-07T18:49:39.931Z,3.30
2018-03-07T18:52:08.207Z,3.40
2018-03-07T18:54:36.386Z,3.40
2018-03-07T18:57:05.227Z,3.40
2018-03-07T18:59:33.354Z,3.40
2018-03-07T19:02:01.503Z,3.40
2018-03-07T19:04:30.168Z,3.40
2018-03-07T19:06:58.892Z,3.40
2018-03-07T19:09:28.291Z,3.30
2018-03-07T19:11:56.541Z,3.30
2018-03-07T19:14:24.714Z,3.20
2018-03-07T19:16:52.760Z,3.20
2018-03-07T19:19:21.025Z,3.10
2018-03-07T19:21:49.231Z,3.10
2018-03-07T19:24:17.308Z,3.10
2018-03-07T19:26:45.783Z,3.10
2018-03-07T19:29:13.961Z,3.10
2018-03-07T19:31:42.442Z,3.00
2018-03-07T19:34:10.513Z,2.90
2018-03-07T19:36:38.788Z,3.00
2018-03-07T19:39:06.860Z,3.10
2018-03-07T19:41:35.018Z,3.10
2018-03-07T19:44:03.337Z,3.10
2018-03-07T19:46:32.369Z,3.20
2018-03-07T19:49:00.375Z,3.20
2018-03-07T19:51:28.641Z,3.30
2018-03-07T19:53:56.720Z,3.10
2018-03-07T19:56:24.912Z,3.10
2018-03-07T19:58:53.090Z,3.00
2018-03-07T20:01:21.347Z,3.00
2018-03-07T20:03:49.423Z,3.10
2018-03-07T20:06:17.764Z,3.10
2018-03-07T20:08:46.516Z,3.10
2018-03-07T20:11:16.040Z,3.10
2018-03-07T20:13:44.729Z,3.20
2018-03-07T20:16:12.811Z,3.10
2018-03-07T20:18:40.815Z,3.30
2018-03-07T20:21:08.701Z,3.30
2018-03-07T20:23:36.816Z,3.40
2018-03-07T20:26:04.751Z,3.40
2018-03-07T20:28:33.442Z,3.40
2018-03-07T20:31:01.707Z,3.50
2018-03-07T20:33:29.889Z,3.50
2018-03-07T20:35:57.951Z,3.60
2018-03-07T20:38:29.610Z,3.80
2018-03-07T20:40:59.174Z,3.80
2018-03-07T20:43:27.672Z,3.80
2018-03-07T20:45:56.224Z,3.80
2018-03-07T20:48:25.211Z,3.70
2018-03-07T20:50:53.883Z,3.60
2018-03-07T20:53:22.226Z,3.60
2018-03-07T20:55:50.173Z,3.50
2018-03-07T20:58:18.912Z,3.50
2018-03-07T21:00:47.783Z,3.40
2018-03-07T21:03:17.078Z,3.50
2018-03-07T21:05:45.428Z,3.40
2018-03-07T21:08:13.646Z,3.40
2018-03-07T21:10:43.035Z,3.60
2018-03-07T21:13:12.493Z,3.60
2018-03-07T21:15:41.499Z,3.70
2018-03-07T21:18:09.367Z,3.70
2018-03-07T21:20:37.440Z,3.70
2018-03-07T21:23:05.554Z,3.70
2018-03-07T21:25:35.115Z,3.60
2018-03-07T21:28:03.390Z,3.60
2018-03-07T21:30:31.373Z,3.60
2018-03-07T21:32:59.357Z,3.50
2018-03-07T21:35:27.510Z,3.50
2018-03-07T21:37:55.943Z,3.50
2018-03-07T21:40:24.053Z,3.50
2018-03-07T21:42:52.126Z,3.40
2018-03-07T21:45:20.414Z,3.50
2018-03-07T21:47:48.573Z,3.40
2018-03-07T21:50:16.586Z,3.40
2018-03-07T21:52:45.333Z,3.40
2018-03-07T21:55:13.202Z,3.40
2018-03-07T21:57:42.195Z,3.40
2018-03-07T22:00:10.469Z,3.40
2018-03-07T22:02:38.537Z,3.50
2018-03-07T22:05:06.426Z,3.50
2018-03-07T22:07:34.321Z,3.50
2018-03-07T22:10:03.264Z,3.40
2018-03-07T22:12:31.274Z,3.40
2018-03-07T22:14:59.945Z,3.70
2018-03-07T22:17:27.864Z,3.70
2018-03-07T22:19:55.830Z,3.80
2018-03-07T22:22:23.829Z,3.70
2018-03-07T22:24:51.715Z,3.70
2018-03-07T22:27:19.864Z,3.70
2018-03-07T22:29:47.745Z,3.60
2018-03-07T22:32:15.740Z,3.60
2018-03-07T22:34:43.805Z,3.60
2018-03-07T22:37:11.780Z,3.50
2018-03-07T22:39:40.441Z,3.60
2018-03-07T22:42:08.258Z,3.50
2018-03-07T22:44:36.259Z,3.50
2018-03-07T22:47:04.229Z,3.50
2018-03-07T22:49:32.200Z,3.50
2018-03-07T22:52:00.095Z,3.50
2018-03-07T22:54:28.018Z,3.50
2018-03-07T22:56:56.031Z,3.40
2018-03-07T22:59:23.879Z,3.40
2018-03-07T23:01:51.758Z,3.40
2018-03-07T23:04:19.619Z,3.40
2018-03-07T23:06:47.589Z,3.40
2018-03-07T23:09:15.416Z,3.40
2018-03-07T23:11:44.003Z,3.40
2018-03-07T23:14:12.107Z,3.30
2018-03-07T23:16:39.867Z,3.30
2018-03-07T23:19:07.850Z,3.30
2018-03-07T23:21:35.641Z,3.30
2018-03-07T23:24:04.395Z,3.30
2018-03-07T23:26:32.460Z,3.30
2018-03-07T23:29:00.342Z,3.30
2018-03-07T23:31:28.804Z,3.30
2018-03-07T23:33:56.820Z,3.30
2018-03-07T23:36:25.558Z,3.20
2018-03-07T23:38:53.383Z,3.20
2018-03-07T23:41:21.298Z,3.20
2018-03-07T23:43:49.379Z,3.20
2018-03-07T23:46:17.850Z,3.20
2018-03-07T23:48:45.723Z,3.10
2018-03-07T23:51:13.769Z,3.10
2018-03-07T23:53:41.848Z,3.10
2018-03-07T23:56:10.107Z,3.10
2018-03-07T23:58:38.413Z,3.10
